Airport View

Enter AWOS ICAO identifier for current METAR.

ex. KFNL

KHVS 191830Z AUTO VRB05KT 10SM FEW027 FEW031 14/08 A2992 RMK AO2 LTG DSNT E AND W

19 Jan 2020 18:30

Frequency: 118.225

Phone: 843-339-9625

Other Area AWOS: KUDG - KCQW - KBBP - KCDN

TAF KFLO 191720Z 1918/2018 30010KT P6SM SCT250 FM192200 32008KT P6SM FEW250 FM200000 34007KT P6SM SKC FM201500 01008KT P6SM SKC